KSMOKSEE

Guest
Details From KSMO - Santa Monica Muni
To KSEE - Gillespie Fld
Flight Number -
Tags Generated
Created
Modified
Stats Distance 103 nm / 190 km
Max Altitude 0 ft / 0 m
Waypoints 2
Social Downloads 0
Likes 0
Share VATSIM

Download

Looking for another format? Having issues loading an existing format? Contact us
Advertisement - Login to hide

Notes

Generated

Route

KSMO KSEE

ID Type Via Altitude Latitude Longitude Leg Dist Tot Dist Heading (true) Name
O KSMO APT - 0 ft / 0 m 34.01098˚ -118.45709˚ - 0 nm - -
O KSEE APT - 0 ft / 0 m 32.82738˚ -116.97624˚ 102 nm 102 nm 133° / 134° -

Altitude Profile

Advertisement - Login to hide

KSMO

Details ICAO KSMO (SMO)
Name SANTA MONICA MUNI
Region United States
Timezone America/Los_Angeles (UTC-8.0)
Stats Elevation 177 ft / 54 m (AMSL)
Location 34.015847° -118.451329°
Runways 1
Magnetic Variation 12.029° E

METAR

KSMO 161651Z AUTO 05005KT 8SM CLR 16/07 A2973 RMK AO2 SLP066 T01560067

Decode

TAF

TAF AMD KSMO 161407Z 1614/1712 04006KT P6SM SCT025 FM161900 24008KT P6SM SKC FM170400 36009KT P6SM SKC

Decode

Departure Runways

ID Width Length Bearing (true) Bearing (mag) Surface Threshold Offset Overrun Length
03 151 ft / 46 m 4,978 ft / 1,517 m 44.45° 32.42° Asphalt 0 ft / 0 m 0 ft / 0 m
21 151 ft / 46 m 4,978 ft / 1,517 m 224.46° 212.43° Asphalt 0 ft / 0 m 0 ft / 0 m

KSEE

Details ICAO KSEE (SEE)
Name Gillespie Field
Region United States
Timezone America/Los_Angeles (UTC-8.0)
Stats Elevation 388 ft / 118 m (AMSL)
Location 32.826113° -116.972351°
Runways 3
Magnetic Variation 11.496° E

METAR

KSEE 161647Z 00000KT 10SM FEW031 SCT065 BKN100 09/M05 A2979

Decode

TAF

Not found

Destination Runways

ID Width Length Bearing (true) Bearing (mag) Surface Threshold Offset Overrun Length
09L 98 ft / 30 m 5,333 ft / 1,625 m 102.13° 90.63° Asphalt 0 ft / 0 m 299 ft / 91 m
09R 59 ft / 18 m 2,733 ft / 833 m 102.14° 90.64° Asphalt 0 ft / 0 m 230 ft / 70 m
17 98 ft / 30 m 4,157 ft / 1,267 m 179.62° 168.12° Asphalt 449 ft / 137 m 0 ft / 0 m
27L 59 ft / 18 m 2,733 ft / 833 m 282.14° 270.64° Asphalt 0 ft / 0 m 98 ft / 30 m
27R 98 ft / 30 m 5,333 ft / 1,625 m 282.14° 270.64° Asphalt 705 ft / 215 m 299 ft / 91 m
35 98 ft / 30 m 4,157 ft / 1,267 m 359.62° 348.12° Asphalt 686 ft / 209 m 0 ft / 0 m

Approach Navaids

Runway Type Ident Frequency Range Bearing (true) Bearing (mag) Slope Elevation
27R Localiser ISEE 110.50 MHz 18 nm / 33 km 282.13° 270.63° - 388 ft / 118 m (AMSL)